createdAt,value
2023-05-27T00:00:11.589Z,15.24
2023-05-27T00:01:11.564Z,15.23
2023-05-27T00:02:11.572Z,15.22
2023-05-27T00:03:11.565Z,15.22
2023-05-27T00:04:11.607Z,15.21
2023-05-27T00:05:11.510Z,15.16
2023-05-27T00:06:11.489Z,15.10
2023-05-27T00:07:11.512Z,15.02
2023-05-27T00:08:11.505Z,14.95
2023-05-27T00:09:11.468Z,14.88
2023-05-27T00:10:11.442Z,14.83
2023-05-27T00:11:11.410Z,14.81
2023-05-27T00:12:11.459Z,14.77
2023-05-27T00:13:11.381Z,14.74
2023-05-27T00:14:11.398Z,14.72
2023-05-27T00:15:11.341Z,14.66
2023-05-27T00:16:11.340Z,14.63
2023-05-27T00:17:11.354Z,14.61
2023-05-27T00:18:11.327Z,14.58
2023-05-27T00:19:11.291Z,14.52
2023-05-27T00:20:11.367Z,14.48
2023-05-27T00:21:11.288Z,14.47
2023-05-27T00:22:11.256Z,14.46
2023-05-27T00:23:11.238Z,14.43
2023-05-27T00:24:11.247Z,14.37
2023-05-27T00:25:11.206Z,14.29
2023-05-27T00:26:11.252Z,14.25
2023-05-27T00:27:11.212Z,14.24
2023-05-27T00:28:11.210Z,14.24
2023-05-27T00:29:11.174Z,14.23
2023-05-27T00:30:11.137Z,14.21
2023-05-27T00:31:11.159Z,14.17
2023-05-27T00:32:11.167Z,14.12
2023-05-27T00:33:11.145Z,14.12
2023-05-27T00:34:11.099Z,14.11
2023-05-27T00:35:11.081Z,14.11
2023-05-27T00:36:11.154Z,14.12
2023-05-27T00:37:11.049Z,14.12
2023-05-27T00:38:11.081Z,14.12
2023-05-27T00:39:11.030Z,14.15
2023-05-27T00:40:11.027Z,14.20
2023-05-27T00:41:10.999Z,14.25
2023-05-27T00:42:10.977Z,14.26
2023-05-27T00:43:11.023Z,14.28
2023-05-27T00:44:10.987Z,14.25
2023-05-27T00:45:10.933Z,14.23
2023-05-27T00:46:10.950Z,14.23
2023-05-27T00:47:10.969Z,14.22
2023-05-27T00:48:10.979Z,14.22
2023-05-27T00:49:10.906Z,14.22
2023-05-27T00:50:10.902Z,14.20
2023-05-27T00:51:10.891Z,14.17
2023-05-27T00:52:10.851Z,14.13
2023-05-27T00:53:10.883Z,14.11
2023-05-27T00:54:10.859Z,14.05
2023-05-27T00:55:10.841Z,13.99
2023-05-27T00:56:10.894Z,13.93
2023-05-27T00:57:10.836Z,13.90
2023-05-27T00:58:10.785Z,13.90
2023-05-27T00:59:10.760Z,13.90
2023-05-27T01:00:10.771Z,13.92
2023-05-27T01:01:10.817Z,13.90
2023-05-27T01:02:10.845Z,13.88
2023-05-27T01:03:10.821Z,13.86
2023-05-27T01:04:10.711Z,13.84
2023-05-27T01:05:10.735Z,13.80
2023-05-27T01:06:10.708Z,13.79
2023-05-27T01:07:10.655Z,13.79
2023-05-27T01:08:10.690Z,13.78
2023-05-27T01:09:10.620Z,13.73
2023-05-27T01:10:10.638Z,13.71
2023-05-27T01:11:10.622Z,13.70
2023-05-27T01:12:10.626Z,13.67
2023-05-27T01:13:10.574Z,13.64
2023-05-27T01:14:10.596Z,13.64
2023-05-27T01:15:10.569Z,13.63
2023-05-27T01:16:10.541Z,13.62
2023-05-27T01:17:10.654Z,13.64
2023-05-27T01:18:10.601Z,13.66
2023-05-27T01:19:10.518Z,13.65
2023-05-27T01:20:10.564Z,13.62
2023-05-27T01:21:10.510Z,13.59
2023-05-27T01:22:10.479Z,13.60
2023-05-27T01:23:10.440Z,13.63
2023-05-27T01:24:10.467Z,13.65
2023-05-27T01:25:10.450Z,13.63
2023-05-27T01:26:10.416Z,13.57
2023-05-27T01:27:10.437Z,13.53
2023-05-27T01:28:10.394Z,13.47
2023-05-27T01:29:10.362Z,13.43
2023-05-27T01:30:10.334Z,13.38
2023-05-27T01:31:10.371Z,13.33
2023-05-27T01:32:10.331Z,13.27
2023-05-27T01:33:10.312Z,13.24
2023-05-27T01:34:10.326Z,13.21
2023-05-27T01:35:10.311Z,13.19
2023-05-27T01:36:10.277Z,13.15
2023-05-27T01:37:10.261Z,13.12
2023-05-27T01:38:10.267Z,13.11
2023-05-27T01:39:10.223Z,13.08
2023-05-27T01:40:10.211Z,13.04
2023-05-27T01:41:10.192Z,12.99
2023-05-27T01:42:10.170Z,12.93
2023-05-27T01:43:10.176Z,12.88
2023-05-27T01:44:10.166Z,12.86
2023-05-27T01:45:10.136Z,12.88
2023-05-27T01:46:10.159Z,12.88
2023-05-27T01:47:10.187Z,12.86
2023-05-27T01:48:10.111Z,12.87
2023-05-27T01:49:10.082Z,12.90
2023-05-27T01:50:10.076Z,12.92
2023-05-27T01:51:10.050Z,12.95
2023-05-27T01:52:10.062Z,12.96
2023-05-27T01:53:10.055Z,12.92
2023-05-27T01:54:10.020Z,12.90
2023-05-27T01:55:10.033Z,12.91
2023-05-27T01:56:10.004Z,12.93
2023-05-27T01:57:09.963Z,12.93
2023-05-27T01:58:09.963Z,12.93
2023-05-27T01:59:10.031Z,12.93
2023-05-27T02:00:09.943Z,12.92
2023-05-27T02:01:09.957Z,12.91
2023-05-27T02:02:09.958Z,12.87
2023-05-27T02:03:09.976Z,12.86
2023-05-27T02:04:09.961Z,12.86
2023-05-27T02:05:09.881Z,12.85
2023-05-27T02:06:09.884Z,12.84
2023-05-27T02:07:09.905Z,12.83
2023-05-27T02:08:09.884Z,12.79
2023-05-27T02:09:09.814Z,12.76
2023-05-27T02:10:09.795Z,12.75
2023-05-27T02:11:09.805Z,12.73
2023-05-27T02:12:09.836Z,12.69
2023-05-27T02:13:09.760Z,12.66
2023-05-27T02:14:09.795Z,12.63
2023-05-27T02:15:09.770Z,12.60
2023-05-27T02:16:09.797Z,12.56
2023-05-27T02:17:09.725Z,12.55
2023-05-27T02:18:09.714Z,12.57
2023-05-27T02:19:09.675Z,12.60
2023-05-27T02:20:09.707Z,12.64
2023-05-27T02:21:09.689Z,12.64
2023-05-27T02:22:09.647Z,12.64
2023-05-27T02:23:09.640Z,12.64
2023-05-27T02:24:09.603Z,12.64
2023-05-27T02:25:09.620Z,12.66
2023-05-27T02:26:09.626Z,12.66
2023-05-27T02:27:09.600Z,12.63
2023-05-27T02:28:09.546Z,12.61
2023-05-27T02:29:09.562Z,12.61
2023-05-27T02:30:09.566Z,12.62
2023-05-27T02:31:09.586Z,12.62
2023-05-27T02:32:09.571Z,12.61
2023-05-27T02:33:09.585Z,12.62
2023-05-27T02:34:09.516Z,12.66
2023-05-27T02:35:09.580Z,12.67
2023-05-27T02:36:09.496Z,12.67
2023-05-27T02:37:09.459Z,12.67
2023-05-27T02:38:09.449Z,12.66
2023-05-27T02:39:09.417Z,12.66
2023-05-27T02:40:09.427Z,12.66
2023-05-27T02:41:09.413Z,12.66
2023-05-27T02:42:09.411Z,12.65
2023-05-27T02:43:09.353Z,12.62
2023-05-27T02:44:09.345Z,12.57
2023-05-27T02:45:09.343Z,12.54
2023-05-27T02:46:09.379Z,12.55
2023-05-27T02:47:09.306Z,12.55
2023-05-27T02:48:09.316Z,12.56
2023-05-27T02:49:09.319Z,12.53
2023-05-27T02:50:09.276Z,12.52
2023-05-27T02:51:09.264Z,12.52
2023-05-27T02:52:09.265Z,12.49
2023-05-27T02:53:09.232Z,12.48
2023-05-27T02:54:09.220Z,12.47
2023-05-27T02:55:09.212Z,12.47
2023-05-27T02:56:09.218Z,12.49
2023-05-27T02:57:09.168Z,12.54
2023-05-27T02:58:09.156Z,12.60
2023-05-27T02:59:09.131Z,12.62
2023-05-27T03:00:09.115Z,12.61
2023-05-27T03:01:09.128Z,12.59
2023-05-27T03:02:09.245Z,12.53
2023-05-27T03:03:09.370Z,12.51
2023-05-27T03:04:09.064Z,12.51
2023-05-27T03:05:09.054Z,12.52
2023-05-27T03:06:09.036Z,12.52
2023-05-27T03:07:09.027Z,12.50
2023-05-27T03:08:09.049Z,12.49
2023-05-27T03:09:09.078Z,12.50
2023-05-27T03:10:08.994Z,12.52
2023-05-27T03:11:09.024Z,12.51
2023-05-27T03:12:08.974Z,12.46
2023-05-27T03:13:08.986Z,12.39
2023-05-27T03:14:09.025Z,12.32
2023-05-27T03:15:08.970Z,12.28
2023-05-27T03:16:08.946Z,12.25
2023-05-27T03:17:08.928Z,12.27
2023-05-27T03:18:08.919Z,12.28
2023-05-27T03:19:09.007Z,12.30
2023-05-27T03:20:08.964Z,12.34
2023-05-27T03:21:08.887Z,12.35
2023-05-27T03:22:08.837Z,12.33
2023-05-27T03:23:08.838Z,12.32
2023-05-27T03:24:08.827Z,12.32
2023-05-27T03:25:08.977Z,12.34
2023-05-27T03:26:08.839Z,12.37
2023-05-27T03:27:08.816Z,12.41
2023-05-27T03:28:08.771Z,12.46
2023-05-27T03:29:08.745Z,12.51
2023-05-27T03:30:08.812Z,12.55
2023-05-27T03:31:08.731Z,12.56
2023-05-27T03:32:08.816Z,12.54
2023-05-27T03:33:08.798Z,12.49
2023-05-27T03:34:08.722Z,12.44
2023-05-27T03:35:08.680Z,12.41
2023-05-27T03:36:08.692Z,12.42
2023-05-27T03:37:08.682Z,12.43
2023-05-27T03:38:08.655Z,12.44
2023-05-27T03:39:08.620Z,12.43
2023-05-27T03:40:08.632Z,12.42
2023-05-27T03:41:09.385Z,12.43
2023-05-27T03:42:08.585Z,12.44
2023-05-27T03:43:08.546Z,12.44
2023-05-27T03:44:08.671Z,12.41
2023-05-27T03:45:08.532Z,12.39
2023-05-27T03:46:08.657Z,12.39
2023-05-27T03:47:08.550Z,12.39
2023-05-27T03:48:08.569Z,12.41
2023-05-27T03:49:08.481Z,12.44
2023-05-27T03:50:08.556Z,12.46
2023-05-27T03:51:08.484Z,12.49
2023-05-27T03:52:08.475Z,12.50
2023-05-27T03:53:08.429Z,12.51
2023-05-27T03:54:08.457Z,12.53
2023-05-27T03:55:08.445Z,12.55
2023-05-27T03:56:08.437Z,12.61
2023-05-27T03:57:08.417Z,12.67
2023-05-27T03:58:08.340Z,12.72
2023-05-27T03:59:08.325Z,12.74
2023-05-27T04:00:08.324Z,12.75
2023-05-27T04:01:08.323Z,12.77
2023-05-27T04:02:08.388Z,12.77
2023-05-27T04:03:08.467Z,12.76
2023-05-27T04:04:08.407Z,12.75
2023-05-27T04:05:08.236Z,12.74
2023-05-27T04:06:08.260Z,12.72
2023-05-27T04:07:08.236Z,12.72
2023-05-27T04:08:08.296Z,12.71
2023-05-27T04:09:08.248Z,12.72
2023-05-27T04:10:08.273Z,12.76
2023-05-27T04:11:08.205Z,12.78
2023-05-27T04:12:08.187Z,12.80
2023-05-27T04:13:08.175Z,12.84
2023-05-27T04:14:08.163Z,12.86
2023-05-27T04:15:08.182Z,12.92
2023-05-27T04:16:08.123Z,12.99
2023-05-27T04:17:08.111Z,13.05
2023-05-27T04:18:08.126Z,13.10
2023-05-27T04:19:08.092Z,13.11
2023-05-27T04:20:08.088Z,13.12
2023-05-27T04:21:08.020Z,13.11
2023-05-27T04:22:08.056Z,13.10
2023-05-27T04:23:08.026Z,13.10
2023-05-27T04:24:07.994Z,13.09
2023-05-27T04:25:08.028Z,13.10
2023-05-27T04:26:08.001Z,13.15
2023-05-27T04:27:07.967Z,13.22
2023-05-27T04:28:07.952Z,13.28
2023-05-27T04:29:07.938Z,13.30
2023-05-27T04:30:09.869Z,13.34
2023-05-27T04:31:07.923Z,13.34
2023-05-27T04:32:07.991Z,13.36
2023-05-27T04:33:07.953Z,13.40
2023-05-27T04:34:07.921Z,13.43
2023-05-27T04:35:07.865Z,13.47
2023-05-27T04:36:07.819Z,13.50
2023-05-27T04:37:07.822Z,13.53
2023-05-27T04:38:07.941Z,13.54
2023-05-27T04:39:07.873Z,13.55
2023-05-27T04:40:07.831Z,13.57
2023-05-27T04:41:07.850Z,13.62
2023-05-27T04:42:07.754Z,13.63
2023-05-27T04:43:07.745Z,13.66
2023-05-27T04:44:07.973Z,13.65
2023-05-27T04:45:07.769Z,13.66
2023-05-27T04:46:07.802Z,13.68
2023-05-27T04:47:07.732Z,13.67
2023-05-27T04:48:07.789Z,13.69
2023-05-27T04:49:07.648Z,13.70
2023-05-27T04:50:07.665Z,13.74
2023-05-27T04:51:07.629Z,13.75
2023-05-27T04:52:07.606Z,13.78
2023-05-27T04:53:07.824Z,13.81
2023-05-27T04:54:07.583Z,13.84
2023-05-27T04:55:07.591Z,13.89
2023-05-27T04:56:07.574Z,13.94
2023-05-27T04:57:07.576Z,13.95
2023-05-27T04:58:07.588Z,13.94
2023-05-27T04:59:07.542Z,13.93
2023-05-27T05:00:07.540Z,13.95
2023-05-27T05:01:07.558Z,13.98
2023-05-27T05:02:07.529Z,13.98
2023-05-27T05:03:07.653Z,13.97
2023-05-27T05:04:07.534Z,13.95
2023-05-27T05:05:07.484Z,13.95
2023-05-27T05:06:07.503Z,13.96
2023-05-27T05:07:07.503Z,13.97
2023-05-27T05:08:07.459Z,13.99
2023-05-27T05:09:07.423Z,14.00
2023-05-27T05:10:07.390Z,14.01
2023-05-27T05:11:07.352Z,14.02
2023-05-27T05:12:07.368Z,14.03
2023-05-27T05:13:07.377Z,14.05
2023-05-27T05:14:07.349Z,14.07
2023-05-27T05:15:07.320Z,14.10
2023-05-27T05:16:07.405Z,14.14
2023-05-27T05:17:07.283Z,14.18
2023-05-27T05:18:07.315Z,14.23
2023-05-27T05:19:07.272Z,14.29
2023-05-27T05:20:07.299Z,14.32
2023-05-27T05:21:07.259Z,14.35
2023-05-27T05:22:07.194Z,14.36
2023-05-27T05:23:07.201Z,14.38
2023-05-27T05:24:07.227Z,14.42
2023-05-27T05:25:07.172Z,14.46
2023-05-27T05:26:07.234Z,14.50
2023-05-27T05:27:07.498Z,14.54
2023-05-27T05:28:07.261Z,14.58
2023-05-27T05:29:07.113Z,14.63
2023-05-27T05:30:07.121Z,14.69
2023-05-27T05:31:11.367Z,14.74
2023-05-27T05:32:08.188Z,14.78
2023-05-27T05:33:11.251Z,14.82
2023-05-27T05:34:07.398Z,14.84
2023-05-27T05:35:07.030Z,14.86
2023-05-27T05:36:07.368Z,14.88
2023-05-27T05:37:07.849Z,14.89
2023-05-27T05:38:07.963Z,14.89
2023-05-27T05:39:07.037Z,14.90
2023-05-27T05:40:07.357Z,14.93
2023-05-27T05:41:07.312Z,14.97
2023-05-27T05:42:06.971Z,15.00
2023-05-27T05:43:06.927Z,15.03
2023-05-27T05:44:06.939Z,15.09
2023-05-27T05:45:10.890Z,15.22
2023-05-27T05:46:06.940Z,15.43
2023-05-27T05:47:07.168Z,15.68
2023-05-27T05:48:06.893Z,15.93
2023-05-27T05:49:06.919Z,16.07
2023-05-27T05:50:10.954Z,16.08
2023-05-27T05:51:06.819Z,16.01
2023-05-27T05:52:06.815Z,15.94
2023-05-27T05:53:06.775Z,15.85
2023-05-27T05:54:06.823Z,15.77
2023-05-27T05:55:09.312Z,15.70
2023-05-27T05:56:06.762Z,15.68
2023-05-27T05:57:06.751Z,15.70
2023-05-27T05:58:06.754Z,15.75
2023-05-27T05:59:06.908Z,15.76
2023-05-27T06:00:06.768Z,15.77
2023-05-27T06:01:06.695Z,15.76
2023-05-27T06:02:06.725Z,15.78
2023-05-27T06:03:06.785Z,15.78
2023-05-27T06:04:06.793Z,15.76
2023-05-27T06:05:06.649Z,15.73
2023-05-27T06:06:06.660Z,15.72
2023-05-27T06:07:06.610Z,15.77
2023-05-27T06:08:06.639Z,15.84
2023-05-27T06:09:06.616Z,15.98
2023-05-27T06:10:06.579Z,16.09
2023-05-27T06:11:06.576Z,16.18
2023-05-27T06:12:06.559Z,16.27
2023-05-27T06:13:06.536Z,16.32
2023-05-27T06:14:06.527Z,16.33
2023-05-27T06:15:06.538Z,16.37
2023-05-27T06:16:06.504Z,16.39
2023-05-27T06:17:06.472Z,16.38
2023-05-27T06:18:06.572Z,16.38
2023-05-27T06:19:06.482Z,16.36
2023-05-27T06:20:06.486Z,16.32
2023-05-27T06:21:06.440Z,16.31
2023-05-27T06:22:06.414Z,16.33
2023-05-27T06:23:06.382Z,16.39
2023-05-27T06:24:06.356Z,16.42
2023-05-27T06:25:06.365Z,16.48
2023-05-27T06:26:06.373Z,16.57
2023-05-27T06:27:06.343Z,16.70
2023-05-27T06:28:06.316Z,16.87
2023-05-27T06:29:06.300Z,17.00
2023-05-27T06:30:06.295Z,17.12
2023-05-27T06:31:06.323Z,17.25
2023-05-27T06:32:06.478Z,17.32
2023-05-27T06:33:06.320Z,17.40
2023-05-27T06:34:06.307Z,17.46
2023-05-27T06:35:06.226Z,17.50
2023-05-27T06:36:06.208Z,17.48
2023-05-27T06:37:06.233Z,17.46
2023-05-27T06:38:06.217Z,17.46
2023-05-27T06:39:06.182Z,17.44
2023-05-27T06:40:06.173Z,17.43
2023-05-27T06:41:06.144Z,17.43
2023-05-27T06:42:06.163Z,17.39
2023-05-27T06:43:06.098Z,17.33
2023-05-27T06:44:06.154Z,17.31
2023-05-27T06:45:06.087Z,17.30
2023-05-27T06:46:10.552Z,17.27
2023-05-27T06:47:06.102Z,17.26
2023-05-27T06:48:06.082Z,17.24
2023-05-27T06:49:06.043Z,17.28
2023-05-27T06:50:06.035Z,17.34
2023-05-27T06:51:06.010Z,17.37
2023-05-27T06:52:07.341Z,17.36
2023-05-27T06:53:05.967Z,17.34
2023-05-27T06:54:05.969Z,17.30
2023-05-27T06:55:05.982Z,17.26
2023-05-27T06:56:05.946Z,17.18
2023-05-27T06:57:05.966Z,17.11
2023-05-27T06:58:05.926Z,17.08
2023-05-27T06:59:05.915Z,17.08
2023-05-27T07:00:06.623Z,17.12
2023-05-27T07:01:05.958Z,17.19
2023-05-27T07:02:05.891Z,17.30
2023-05-27T07:03:05.941Z,17.46
2023-05-27T07:04:05.814Z,17.61
2023-05-27T07:05:05.841Z,17.69
2023-05-27T07:06:05.823Z,17.74
2023-05-27T07:07:05.839Z,17.75
2023-05-27T07:08:05.785Z,17.74
2023-05-27T07:09:06.508Z,17.71
2023-05-27T07:10:07.224Z,17.73
2023-05-27T07:11:05.761Z,17.77
2023-05-27T07:12:05.701Z,17.76
2023-05-27T07:13:05.679Z,17.76
2023-05-27T07:14:05.717Z,17.75
2023-05-27T07:15:05.685Z,17.74
2023-05-27T07:16:05.702Z,17.77
2023-05-27T07:17:05.643Z,17.76
2023-05-27T07:18:05.705Z,17.74
2023-05-27T07:19:05.674Z,17.74
2023-05-27T07:20:05.623Z,17.77
2023-05-27T07:21:05.594Z,17.79
2023-05-27T07:22:05.657Z,17.81
2023-05-27T07:23:05.561Z,17.83
2023-05-27T07:24:05.604Z,17.82
2023-05-27T07:25:05.578Z,17.79
2023-05-27T07:26:05.592Z,17.72
2023-05-27T07:27:05.511Z,17.66
2023-05-27T07:28:06.043Z,17.64
2023-05-27T07:29:05.812Z,17.60
2023-05-27T07:30:05.491Z,17.55
2023-05-27T07:31:05.593Z,17.55
2023-05-27T07:32:05.474Z,17.58
2023-05-27T07:33:05.486Z,17.61
2023-05-27T07:34:05.416Z,17.64
2023-05-27T07:35:05.485Z,17.65
2023-05-27T07:36:05.400Z,17.69
2023-05-27T07:37:05.423Z,17.75
2023-05-27T07:38:05.442Z,17.81
2023-05-27T07:39:05.396Z,17.85
2023-05-27T07:40:05.486Z,17.86
2023-05-27T07:41:05.432Z,17.85
2023-05-27T07:42:05.417Z,17.85
2023-05-27T07:43:05.307Z,17.87
2023-05-27T07:44:05.337Z,17.88
2023-05-27T07:45:05.305Z,17.89
2023-05-27T07:46:05.385Z,17.93
2023-05-27T07:47:05.362Z,17.97
2023-05-27T07:48:05.326Z,18.01
2023-05-27T07:49:05.245Z,18.06
2023-05-27T07:50:05.283Z,18.09
2023-05-27T07:51:05.176Z,18.12
2023-05-27T07:52:05.224Z,18.15
2023-05-27T07:54:05.170Z,18.13
2023-05-27T07:55:05.141Z,18.15
2023-05-27T07:56:05.187Z,18.17
2023-05-27T07:57:05.676Z,18.19
2023-05-27T07:58:05.145Z,18.21
2023-05-27T07:59:05.119Z,18.20
2023-05-27T08:00:05.062Z,18.20
2023-05-27T08:01:05.179Z,18.21
2023-05-27T08:02:05.119Z,18.23
2023-05-27T08:03:05.090Z,18.25
2023-05-27T08:04:16.184Z,18.26
2023-05-27T08:05:05.982Z,18.29
2023-05-27T08:06:05.006Z,18.30
2023-05-27T08:07:04.988Z,18.30
2023-05-27T08:08:04.999Z,18.30
2023-05-27T08:09:05.002Z,18.31
2023-05-27T08:10:04.931Z,18.34
2023-05-27T08:11:04.921Z,18.37
2023-05-27T08:12:04.961Z,18.39
2023-05-27T08:13:04.899Z,18.39
2023-05-27T08:14:04.953Z,18.36
2023-05-27T08:15:04.872Z,18.36
2023-05-27T08:16:04.867Z,18.36
2023-05-27T08:17:04.907Z,18.36
2023-05-27T08:18:04.987Z,18.37
2023-05-27T08:19:04.857Z,18.38
2023-05-27T08:20:04.817Z,18.40
2023-05-27T08:21:05.050Z,18.42
2023-05-27T08:22:05.824Z,18.46
2023-05-27T08:23:04.797Z,18.50
2023-05-27T08:24:04.772Z,18.53
2023-05-27T08:25:04.710Z,18.59
2023-05-27T08:26:04.812Z,18.65
2023-05-27T08:27:04.752Z,18.70
2023-05-27T08:28:04.721Z,18.72
2023-05-27T08:29:04.712Z,18.74
2023-05-27T08:30:04.679Z,18.74
2023-05-27T08:31:04.713Z,18.74
2023-05-27T08:32:04.672Z,18.76
2023-05-27T08:33:04.708Z,18.77
2023-05-27T08:34:04.617Z,18.79
2023-05-27T08:35:04.580Z,18.81
2023-05-27T08:36:04.589Z,18.84
2023-05-27T08:37:04.590Z,18.84
2023-05-27T08:38:04.568Z,18.85
2023-05-27T08:39:04.559Z,18.85
2023-05-27T08:40:04.561Z,18.87
2023-05-27T08:41:04.514Z,18.89
2023-05-27T08:42:04.498Z,18.91
2023-05-27T08:43:04.483Z,18.92
2023-05-27T08:45:04.506Z,18.92
2023-05-27T08:46:04.494Z,18.92
2023-05-27T08:47:04.462Z,18.91
2023-05-27T08:48:04.487Z,18.92
2023-05-27T08:49:04.421Z,18.94
2023-05-27T08:50:04.501Z,18.95
2023-05-27T08:51:04.425Z,18.97
2023-05-27T08:52:04.373Z,18.97
2023-05-27T08:53:04.352Z,18.96
2023-05-27T08:54:04.345Z,18.93
2023-05-27T08:55:04.339Z,18.92
2023-05-27T08:56:04.353Z,18.92
2023-05-27T08:57:04.404Z,18.94
2023-05-27T08:58:04.290Z,18.97
2023-05-27T08:59:04.278Z,19.02
2023-05-27T09:00:04.301Z,19.01
2023-05-27T09:01:04.279Z,19.01
2023-05-27T09:02:04.279Z,19.03
2023-05-27T09:03:04.295Z,19.03
2023-05-27T09:04:04.296Z,19.04
2023-05-27T09:05:04.247Z,19.06
2023-05-27T09:06:18.967Z,19.08
2023-05-27T09:07:04.316Z,19.12
2023-05-27T09:08:04.159Z,19.16
2023-05-27T09:09:04.146Z,19.20
2023-05-27T09:10:04.127Z,19.18
2023-05-27T09:11:04.163Z,19.15
2023-05-27T09:12:04.111Z,19.09
2023-05-27T09:13:04.107Z,19.05
2023-05-27T09:14:04.102Z,19.04
2023-05-27T09:15:04.108Z,19.06
2023-05-27T09:16:04.100Z,19.09
2023-05-27T09:17:04.046Z,19.10
2023-05-27T09:18:04.026Z,19.13
2023-05-27T09:19:04.011Z,19.16
2023-05-27T09:20:04.052Z,19.19
2023-05-27T09:21:03.997Z,19.23
2023-05-27T09:22:03.945Z,19.26
2023-05-27T09:23:03.960Z,19.31
2023-05-27T09:24:03.932Z,19.35
2023-05-27T09:25:03.945Z,19.42
2023-05-27T09:26:03.960Z,19.51
2023-05-27T09:27:03.898Z,19.59
2023-05-27T09:28:03.862Z,19.67
2023-05-27T09:29:03.871Z,19.73
2023-05-27T09:30:03.888Z,19.79
2023-05-27T09:31:03.931Z,19.84
2023-05-27T09:32:03.961Z,19.88
2023-05-27T09:33:04.101Z,19.92
2023-05-27T09:34:03.818Z,19.96
2023-05-27T09:35:03.839Z,19.99
2023-05-27T09:36:03.759Z,20.01
2023-05-27T09:37:03.761Z,20.04
2023-05-27T09:38:03.745Z,20.07
2023-05-27T09:39:03.743Z,20.10
2023-05-27T09:40:03.741Z,20.12
2023-05-27T09:41:03.748Z,20.13
2023-05-27T09:42:03.712Z,20.13
2023-05-27T09:43:03.697Z,20.14
2023-05-27T09:44:03.671Z,20.16
2023-05-27T09:45:03.678Z,20.17
2023-05-27T09:46:03.862Z,20.17
2023-05-27T09:47:03.630Z,20.18
2023-05-27T09:48:03.618Z,20.19
2023-05-27T09:49:03.584Z,20.21
2023-05-27T09:50:03.603Z,20.21
2023-05-27T09:51:03.693Z,20.22
2023-05-27T09:52:03.540Z,20.22
2023-05-27T09:53:11.534Z,20.23
2023-05-27T09:54:04.522Z,20.23
2023-05-27T09:55:03.519Z,20.23
2023-05-27T09:56:03.550Z,20.23
2023-05-27T09:57:03.511Z,20.24
2023-05-27T09:58:03.488Z,20.23
2023-05-27T09:59:03.505Z,20.22
2023-05-27T10:00:03.475Z,20.21
2023-05-27T10:01:03.497Z,20.18
2023-05-27T10:02:03.462Z,20.15
2023-05-27T10:03:03.576Z,20.15
2023-05-27T10:04:03.394Z,20.17
2023-05-27T10:05:03.393Z,20.19
2023-05-27T10:06:03.394Z,20.22
2023-05-27T10:07:03.373Z,20.23
2023-05-27T10:08:13.023Z,20.24
2023-05-27T10:09:04.330Z,20.23
2023-05-27T10:10:03.292Z,20.24
2023-05-27T10:11:03.348Z,20.24
2023-05-27T10:12:03.291Z,20.25
2023-05-27T10:13:03.285Z,20.28
2023-05-27T10:14:03.310Z,20.29
2023-05-27T10:15:03.230Z,20.32
2023-05-27T10:16:03.218Z,20.33
2023-05-27T10:17:03.266Z,20.33
2023-05-27T10:18:03.414Z,20.32
2023-05-27T10:19:03.163Z,20.32
2023-05-27T10:20:03.251Z,20.34
2023-05-27T10:21:03.200Z,20.35
2023-05-27T10:22:03.127Z,20.38
2023-05-27T10:23:03.142Z,20.41
2023-05-27T10:24:03.128Z,20.45
2023-05-27T10:25:03.090Z,20.48
2023-05-27T10:26:03.133Z,20.51
2023-05-27T10:27:03.090Z,20.54
2023-05-27T10:28:03.063Z,20.57
2023-05-27T10:29:03.049Z,20.57
2023-05-27T10:30:03.051Z,20.58
2023-05-27T10:31:03.119Z,20.58
2023-05-27T10:32:03.106Z,20.59
2023-05-27T10:33:03.042Z,20.61
2023-05-27T10:34:02.979Z,20.64
2023-05-27T10:35:02.973Z,20.66
2023-05-27T10:36:02.960Z,20.68
2023-05-27T10:37:02.968Z,20.70
2023-05-27T10:38:02.989Z,20.71
2023-05-27T10:39:02.909Z,20.71
2023-05-27T10:40:02.978Z,20.69
2023-05-27T10:41:03.501Z,20.68
2023-05-27T10:42:14.873Z,20.67
2023-05-27T10:43:03.886Z,20.67
2023-05-27T10:44:02.857Z,20.67
2023-05-27T10:45:02.837Z,20.68
2023-05-27T10:46:02.966Z,20.70
2023-05-27T10:47:02.999Z,20.72
2023-05-27T10:48:02.875Z,20.75
2023-05-27T10:49:02.795Z,20.79
2023-05-27T10:50:02.775Z,20.83
2023-05-27T10:51:02.828Z,20.86
2023-05-27T10:52:02.821Z,20.91
2023-05-27T10:53:02.737Z,20.96
2023-05-27T10:55:02.737Z,21.03
2023-05-27T10:56:02.711Z,21.05
2023-05-27T10:57:02.703Z,21.06
2023-05-27T10:58:02.699Z,21.06
2023-05-27T10:59:02.648Z,21.07
2023-05-27T11:00:05.318Z,21.07
2023-05-27T11:01:02.656Z,21.06
2023-05-27T11:02:02.640Z,21.07
2023-05-27T11:03:02.739Z,21.10
2023-05-27T11:04:02.623Z,21.16
2023-05-27T11:05:02.574Z,21.22
2023-05-27T11:06:02.569Z,21.28
2023-05-27T11:07:04.660Z,21.34
2023-05-27T11:08:02.550Z,21.38
2023-05-27T11:09:02.506Z,21.42
2023-05-27T11:10:02.511Z,21.45
2023-05-27T11:11:02.603Z,21.46
2023-05-27T11:12:02.504Z,21.49
2023-05-27T11:13:02.492Z,21.52
2023-05-27T11:14:02.440Z,21.53
2023-05-27T11:15:02.433Z,21.52
2023-05-27T11:16:02.791Z,21.52
2023-05-27T11:17:02.501Z,21.52
2023-05-27T11:18:02.478Z,21.54
2023-05-27T11:19:02.439Z,21.57
2023-05-27T11:20:09.350Z,21.59
2023-05-27T11:21:02.416Z,21.64
2023-05-27T11:22:02.381Z,21.69
2023-05-27T11:23:02.354Z,21.73
2023-05-27T11:24:02.313Z,21.76
2023-05-27T11:25:02.345Z,21.81
2023-05-27T11:26:02.292Z,21.88
2023-05-27T11:27:02.304Z,21.94
2023-05-27T11:28:02.301Z,22.00
2023-05-27T11:29:02.243Z,22.05
2023-05-27T11:30:02.279Z,22.11
2023-05-27T11:31:02.319Z,22.16
2023-05-27T11:32:02.281Z,22.20
2023-05-27T11:33:02.244Z,22.20
2023-05-27T11:34:02.177Z,22.18
2023-05-27T11:35:02.192Z,22.18
2023-05-27T11:36:02.176Z,22.21
2023-05-27T11:37:02.185Z,22.23
2023-05-27T11:38:02.123Z,22.26
2023-05-27T11:39:02.227Z,22.27
2023-05-27T11:40:02.123Z,22.29
2023-05-27T11:41:02.079Z,22.31
2023-05-27T11:42:02.073Z,22.34
2023-05-27T11:43:02.094Z,22.39
2023-05-27T11:44:02.102Z,22.43
2023-05-27T11:45:02.028Z,22.47
2023-05-27T11:46:02.053Z,22.49
2023-05-27T11:47:02.007Z,22.47
2023-05-27T11:48:02.057Z,22.42
2023-05-27T11:49:02.024Z,22.36
2023-05-27T11:50:01.961Z,22.26
2023-05-27T11:51:01.988Z,22.17
2023-05-27T11:52:01.928Z,22.12
2023-05-27T11:53:01.945Z,22.10
2023-05-27T11:54:02.097Z,22.10
2023-05-27T11:55:01.937Z,22.11
2023-05-27T11:56:01.901Z,22.11
2023-05-27T11:57:01.877Z,22.11
2023-05-27T11:58:01.882Z,22.14
2023-05-27T11:59:01.910Z,22.18
2023-05-27T12:00:01.853Z,22.23
2023-05-27T12:01:01.862Z,22.32
2023-05-27T12:02:01.894Z,22.40
2023-05-27T12:03:01.953Z,22.47
2023-05-27T12:04:01.794Z,22.51
2023-05-27T12:05:01.876Z,22.56
2023-05-27T12:06:01.826Z,22.57
2023-05-27T12:07:05.870Z,22.54
2023-05-27T12:08:02.739Z,22.54
2023-05-27T12:09:01.729Z,22.60
2023-05-27T12:10:01.711Z,22.62
2023-05-27T12:11:01.745Z,22.62
2023-05-27T12:12:01.677Z,22.58
2023-05-27T12:13:01.688Z,22.54
2023-05-27T12:14:01.758Z,22.50
2023-05-27T12:15:01.716Z,22.49
2023-05-27T12:16:01.707Z,22.49
2023-05-27T12:17:01.696Z,22.50
2023-05-27T12:18:01.711Z,22.54
2023-05-27T12:19:01.675Z,22.59
2023-05-27T12:20:01.745Z,22.63
2023-05-27T12:21:01.619Z,22.67
2023-05-27T12:22:01.600Z,22.70
2023-05-27T12:23:01.630Z,22.70
2023-05-27T12:24:01.584Z,22.67
2023-05-27T12:25:01.560Z,22.69
2023-05-27T12:26:01.555Z,22.72
2023-05-27T12:27:01.502Z,22.77
2023-05-27T12:28:01.565Z,22.77
2023-05-27T12:29:01.500Z,22.80
2023-05-27T12:30:01.556Z,22.84
2023-05-27T12:31:01.589Z,22.87
2023-05-27T12:32:01.471Z,22.85
2023-05-27T12:33:01.498Z,22.83
2023-05-27T12:34:01.406Z,22.87
2023-05-27T12:35:01.375Z,22.95
2023-05-27T12:36:01.379Z,23.03
2023-05-27T12:37:01.437Z,23.12
2023-05-27T12:38:01.390Z,23.23
2023-05-27T12:39:01.364Z,23.30
2023-05-27T12:40:01.333Z,23.34
2023-05-27T12:41:01.302Z,23.36
2023-05-27T12:42:01.316Z,23.36
2023-05-27T12:43:01.304Z,23.35
2023-05-27T12:44:01.252Z,23.38
2023-05-27T12:45:01.269Z,23.41
2023-05-27T12:46:01.225Z,23.48
2023-05-27T12:47:01.284Z,23.54
2023-05-27T12:48:01.268Z,23.59
2023-05-27T12:49:01.238Z,23.57
2023-05-27T12:50:01.205Z,23.54
2023-05-27T12:51:01.204Z,23.53
2023-05-27T12:52:01.177Z,23.49
2023-05-27T12:53:01.172Z,23.55
2023-05-27T12:54:01.172Z,23.63
2023-05-27T12:55:01.149Z,23.74